sensor_id;sensor_type;location;lat;lon;timestamp;P1;durP1;ratioP1;P2;durP2;ratioP2
3667;SDS011;24099;47.102;15.440;2023-04-24T00:00:08;1.67;;;1.48;;
3667;SDS011;24099;47.102;15.440;2023-04-24T00:02:37;2.05;;;1.40;;
3667;SDS011;24099;47.102;15.440;2023-04-24T00:05:05;1.05;;;0.90;;
3667;SDS011;24099;47.102;15.440;2023-04-24T00:07:34;1.27;;;1.17;;
3667;SDS011;24099;47.102;15.440;2023-04-24T00:10:02;1.05;;;1.00;;
3667;SDS011;24099;47.102;15.440;2023-04-24T00:12:32;1.10;;;1.00;;
3667;SDS011;24099;47.102;15.440;2023-04-24T00:15:02;1.30;;;1.20;;
3667;SDS011;24099;47.102;15.440;2023-04-24T00:17:30;0.93;;;0.93;;
3667;SDS011;24099;47.102;15.440;2023-04-24T00:20:01;2.88;;;0.98;;
3667;SDS011;24099;47.102;15.440;2023-04-24T00:22:30;1.20;;;1.10;;
3667;SDS011;24099;47.102;15.440;2023-04-24T00:24:58;0.82;;;0.82;;
3667;SDS011;24099;47.102;15.440;2023-04-24T00:27:26;0.95;;;0.88;;
3667;SDS011;24099;47.102;15.440;2023-04-24T00:29:56;1.90;;;1.35;;
3667;SDS011;24099;47.102;15.440;2023-04-24T00:32:23;2.33;;;1.63;;
3667;SDS011;24099;47.102;15.440;2023-04-24T00:34:51;0.82;;;0.82;;
3667;SDS011;24099;47.102;15.440;2023-04-24T00:37:25;0.73;;;0.63;;
3667;SDS011;24099;47.102;15.440;2023-04-24T00:39:52;1.15;;;1.10;;
3667;SDS011;24099;47.102;15.440;2023-04-24T00:42:20;1.65;;;0.95;;
3667;SDS011;24099;47.102;15.440;2023-04-24T00:45:05;1.60;;;1.50;;
3667;SDS011;24099;47.102;15.440;2023-04-24T00:47:34;1.40;;;1.25;;
3667;SDS011;24099;47.102;15.440;2023-04-24T00:50:02;0.80;;;0.80;;
3667;SDS011;24099;47.102;15.440;2023-04-24T00:52:32;1.35;;;1.08;;
3667;SDS011;24099;47.102;15.440;2023-04-24T00:54:59;1.17;;;1.08;;
3667;SDS011;24099;47.102;15.440;2023-04-24T00:57:28;3.90;;;1.52;;
3667;SDS011;24099;47.102;15.440;2023-04-24T00:59:56;1.17;;;1.02;;
3667;SDS011;24099;47.102;15.440;2023-04-24T01:02:26;1.20;;;1.08;;
3667;SDS011;24099;47.102;15.440;2023-04-24T01:05:00;1.67;;;1.33;;
3667;SDS011;24099;47.102;15.440;2023-04-24T01:07:31;1.10;;;1.00;;
3667;SDS011;24099;47.102;15.440;2023-04-24T01:10:06;1.15;;;1.05;;
3667;SDS011;24099;47.102;15.440;2023-04-24T01:12:36;2.42;;;1.63;;
3667;SDS011;24099;47.102;15.440;2023-04-24T01:15:08;0.90;;;0.90;;
3667;SDS011;24099;47.102;15.440;2023-04-24T01:17:44;2.05;;;1.40;;
3667;SDS011;24099;47.102;15.440;2023-04-24T01:20:13;1.55;;;1.40;;
3667;SDS011;24099;47.102;15.440;2023-04-24T01:22:46;0.93;;;0.93;;
3667;SDS011;24099;47.102;15.440;2023-04-24T01:25:14;1.35;;;1.13;;
3667;SDS011;24099;47.102;15.440;2023-04-24T01:27:42;1.30;;;1.15;;
3667;SDS011;24099;47.102;15.440;2023-04-24T01:30:18;1.40;;;1.30;;
3667;SDS011;24099;47.102;15.440;2023-04-24T01:32:46;1.23;;;1.13;;
3667;SDS011;24099;47.102;15.440;2023-04-24T01:35:14;1.00;;;1.00;;
3667;SDS011;24099;47.102;15.440;2023-04-24T01:37:42;1.33;;;1.15;;
3667;SDS011;24099;47.102;15.440;2023-04-24T01:40:15;1.70;;;1.33;;
3667;SDS011;24099;47.102;15.440;2023-04-24T01:42:43;1.30;;;1.20;;
3667;SDS011;24099;47.102;15.440;2023-04-24T01:45:15;1.20;;;1.10;;
3667;SDS011;24099;47.102;15.440;2023-04-24T01:47:43;1.30;;;1.20;;
3667;SDS011;24099;47.102;15.440;2023-04-24T01:50:11;1.67;;;1.27;;
3667;SDS011;24099;47.102;15.440;2023-04-24T01:52:40;1.50;;;1.40;;
3667;SDS011;24099;47.102;15.440;2023-04-24T01:55:09;1.17;;;0.98;;
3667;SDS011;24099;47.102;15.440;2023-04-24T01:57:38;1.35;;;1.25;;
3667;SDS011;24099;47.102;15.440;2023-04-24T02:00:10;1.25;;;1.15;;
3667;SDS011;24099;47.102;15.440;2023-04-24T02:02:39;2.03;;;1.23;;
3667;SDS011;24099;47.102;15.440;2023-04-24T02:05:08;1.65;;;1.35;;
3667;SDS011;24099;47.102;15.440;2023-04-24T02:07:36;5.95;;;1.55;;
3667;SDS011;24099;47.102;15.440;2023-04-24T02:10:05;1.65;;;1.35;;
3667;SDS011;24099;47.102;15.440;2023-04-24T02:12:50;3.00;;;1.52;;
3667;SDS011;24099;47.102;15.440;2023-04-24T02:15:18;1.25;;;1.15;;
3667;SDS011;24099;47.102;15.440;2023-04-24T02:17:46;1.90;;;1.00;;
3667;SDS011;24099;47.102;15.440;2023-04-24T02:20:13;1.40;;;1.30;;
3667;SDS011;24099;47.102;15.440;2023-04-24T02:22:42;5.00;;;2.08;;
3667;SDS011;24099;47.102;15.440;2023-04-24T02:25:11;1.52;;;1.33;;
3667;SDS011;24099;47.102;15.440;2023-04-24T02:27:40;2.50;;;1.60;;
3667;SDS011;24099;47.102;15.440;2023-04-24T02:30:12;2.13;;;1.33;;
3667;SDS011;24099;47.102;15.440;2023-04-24T02:32:40;1.48;;;1.38;;
3667;SDS011;24099;47.102;15.440;2023-04-24T02:35:09;1.42;;;1.33;;
3667;SDS011;24099;47.102;15.440;2023-04-24T02:37:37;1.05;;;0.98;;
3667;SDS011;24099;47.102;15.440;2023-04-24T02:40:08;1.65;;;1.55;;
3667;SDS011;24099;47.102;15.440;2023-04-24T02:42:36;1.25;;;1.15;;
3667;SDS011;24099;47.102;15.440;2023-04-24T02:45:04;2.92;;;1.70;;
3667;SDS011;24099;47.102;15.440;2023-04-24T02:47:34;1.52;;;1.40;;
3667;SDS011;24099;47.102;15.440;2023-04-24T02:50:02;2.42;;;1.40;;
3667;SDS011;24099;47.102;15.440;2023-04-24T02:52:33;1.38;;;1.25;;
3667;SDS011;24099;47.102;15.440;2023-04-24T02:55:00;2.08;;;1.60;;
3667;SDS011;24099;47.102;15.440;2023-04-24T02:57:28;1.60;;;1.40;;
3667;SDS011;24099;47.102;15.440;2023-04-24T02:59:56;1.20;;;1.10;;
3667;SDS011;24099;47.102;15.440;2023-04-24T03:02:24;2.80;;;2.03;;
3667;SDS011;24099;47.102;15.440;2023-04-24T03:04:53;1.60;;;1.33;;
3667;SDS011;24099;47.102;15.440;2023-04-24T03:07:22;3.03;;;1.33;;
3667;SDS011;24099;47.102;15.440;2023-04-24T03:09:49;1.42;;;1.33;;
3667;SDS011;24099;47.102;15.440;2023-04-24T03:12:18;1.42;;;1.33;;
3667;SDS011;24099;47.102;15.440;2023-04-24T03:14:48;2.42;;;1.50;;
3667;SDS011;24099;47.102;15.440;2023-04-24T03:17:18;1.58;;;1.48;;
3667;SDS011;24099;47.102;15.440;2023-04-24T03:19:45;1.35;;;1.25;;
3667;SDS011;24099;47.102;15.440;2023-04-24T03:22:14;2.70;;;1.70;;
3667;SDS011;24099;47.102;15.440;2023-04-24T03:24:42;1.23;;;1.13;;
3667;SDS011;24099;47.102;15.440;2023-04-24T03:27:12;2.17;;;1.65;;
3667;SDS011;24099;47.102;15.440;2023-04-24T03:30:13;1.27;;;1.17;;
3667;SDS011;24099;47.102;15.440;2023-04-24T03:32:53;1.80;;;1.55;;
3667;SDS011;24099;47.102;15.440;2023-04-24T03:35:26;1.20;;;1.10;;
3667;SDS011;24099;47.102;15.440;2023-04-24T03:37:59;1.63;;;1.20;;
3667;SDS011;24099;47.102;15.440;2023-04-24T03:40:45;1.45;;;1.10;;
3667;SDS011;24099;47.102;15.440;2023-04-24T03:43:29;1.30;;;1.02;;
3667;SDS011;24099;47.102;15.440;2023-04-24T03:46:00;1.83;;;1.48;;
3667;SDS011;24099;47.102;15.440;2023-04-24T03:48:30;1.98;;;1.65;;
3667;SDS011;24099;47.102;15.440;2023-04-24T03:50:58;1.48;;;1.27;;
3667;SDS011;24099;47.102;15.440;2023-04-24T03:53:29;1.63;;;1.50;;
3667;SDS011;24099;47.102;15.440;2023-04-24T03:55:58;1.40;;;1.30;;
3667;SDS011;24099;47.102;15.440;2023-04-24T03:58:30;1.48;;;1.38;;
3667;SDS011;24099;47.102;15.440;2023-04-24T04:00:59;1.80;;;1.67;;
3667;SDS011;24099;47.102;15.440;2023-04-24T04:03:43;1.63;;;1.35;;
3667;SDS011;24099;47.102;15.440;2023-04-24T04:06:14;2.47;;;1.52;;
3667;SDS011;24099;47.102;15.440;2023-04-24T04:08:45;1.55;;;1.45;;
3667;SDS011;24099;47.102;15.440;2023-04-24T04:11:12;1.45;;;1.35;;
3667;SDS011;24099;47.102;15.440;2023-04-24T04:13:40;1.52;;;1.30;;
3667;SDS011;24099;47.102;15.440;2023-04-24T04:16:14;1.75;;;1.40;;
3667;SDS011;24099;47.102;15.440;2023-04-24T04:18:44;4.72;;;1.75;;
3667;SDS011;24099;47.102;15.440;2023-04-24T04:21:12;2.10;;;1.52;;
3667;SDS011;24099;47.102;15.440;2023-04-24T04:23:40;1.95;;;1.75;;
3667;SDS011;24099;47.102;15.440;2023-04-24T04:26:28;2.15;;;1.63;;
3667;SDS011;24099;47.102;15.440;2023-04-24T04:29:06;3.42;;;1.50;;
3667;SDS011;24099;47.102;15.440;2023-04-24T04:31:39;1.92;;;1.73;;
3667;SDS011;24099;47.102;15.440;2023-04-24T04:34:11;2.65;;;1.92;;
3667;SDS011;24099;47.102;15.440;2023-04-24T04:36:41;2.63;;;1.88;;
3667;SDS011;24099;47.102;15.440;2023-04-24T04:39:34;1.25;;;1.15;;
3667;SDS011;24099;47.102;15.440;2023-04-24T04:42:10;2.72;;;1.73;;
3667;SDS011;24099;47.102;15.440;2023-04-24T04:44:42;1.70;;;1.60;;
3667;SDS011;24099;47.102;15.440;2023-04-24T04:47:19;2.93;;;2.13;;
3667;SDS011;24099;47.102;15.440;2023-04-24T04:49:50;2.40;;;1.98;;
3667;SDS011;24099;47.102;15.440;2023-04-24T04:52:22;1.83;;;1.67;;
3667;SDS011;24099;47.102;15.440;2023-04-24T04:55:09;2.03;;;1.80;;
3667;SDS011;24099;47.102;15.440;2023-04-24T04:57:58;2.70;;;1.85;;
3667;SDS011;24099;47.102;15.440;2023-04-24T05:00:27;2.17;;;1.90;;
3667;SDS011;24099;47.102;15.440;2023-04-24T05:03:00;2.50;;;1.65;;
3667;SDS011;24099;47.102;15.440;2023-04-24T05:05:28;2.25;;;1.95;;
3667;SDS011;24099;47.102;15.440;2023-04-24T05:07:56;2.95;;;2.13;;
3667;SDS011;24099;47.102;15.440;2023-04-24T05:10:24;7.50;;;1.80;;
3667;SDS011;24099;47.102;15.440;2023-04-24T05:12:54;2.45;;;1.80;;
3667;SDS011;24099;47.102;15.440;2023-04-24T05:15:23;4.00;;;2.13;;
3667;SDS011;24099;47.102;15.440;2023-04-24T05:17:51;4.10;;;2.60;;
3667;SDS011;24099;47.102;15.440;2023-04-24T05:20:22;2.97;;;2.10;;
3667;SDS011;24099;47.102;15.440;2023-04-24T05:22:50;3.90;;;2.35;;
3667;SDS011;24099;47.102;15.440;2023-04-24T05:25:21;3.88;;;2.25;;
3667;SDS011;24099;47.102;15.440;2023-04-24T05:28:00;4.22;;;2.33;;
3667;SDS011;24099;47.102;15.440;2023-04-24T05:30:29;3.00;;;2.13;;
3667;SDS011;24099;47.102;15.440;2023-04-24T05:32:57;3.25;;;2.25;;
3667;SDS011;24099;47.102;15.440;2023-04-24T05:35:25;2.92;;;2.25;;
3667;SDS011;24099;47.102;15.440;2023-04-24T05:37:55;3.22;;;2.45;;
3667;SDS011;24099;47.102;15.440;2023-04-24T05:40:23;2.67;;;2.10;;
3667;SDS011;24099;47.102;15.440;2023-04-24T05:42:51;3.63;;;2.08;;
3667;SDS011;24099;47.102;15.440;2023-04-24T05:45:19;3.33;;;2.58;;
3667;SDS011;24099;47.102;15.440;2023-04-24T05:47:50;4.47;;;2.47;;
3667;SDS011;24099;47.102;15.440;2023-04-24T05:50:19;4.85;;;2.92;;
3667;SDS011;24099;47.102;15.440;2023-04-24T05:52:47;2.85;;;2.33;;
3667;SDS011;24099;47.102;15.440;2023-04-24T05:55:25;4.22;;;2.40;;
3667;SDS011;24099;47.102;15.440;2023-04-24T05:57:53;5.82;;;2.78;;
3667;SDS011;24099;47.102;15.440;2023-04-24T06:00:23;4.43;;;2.35;;
3667;SDS011;24099;47.102;15.440;2023-04-24T06:03:01;3.05;;;2.30;;
3667;SDS011;24099;47.102;15.440;2023-04-24T06:05:29;2.80;;;2.15;;
3667;SDS011;24099;47.102;15.440;2023-04-24T06:07:58;2.97;;;2.35;;
3667;SDS011;24099;47.102;15.440;2023-04-24T06:10:31;4.55;;;3.17;;
3667;SDS011;24099;47.102;15.440;2023-04-24T06:12:59;4.70;;;2.60;;
3667;SDS011;24099;47.102;15.440;2023-04-24T06:15:29;3.00;;;2.40;;
3667;SDS011;24099;47.102;15.440;2023-04-24T06:18:08;5.32;;;2.63;;
3667;SDS011;24099;47.102;15.440;2023-04-24T06:20:37;2.75;;;2.42;;
3667;SDS011;24099;47.102;15.440;2023-04-24T06:23:07;3.55;;;2.40;;
3667;SDS011;24099;47.102;15.440;2023-04-24T06:25:35;4.63;;;2.75;;
3667;SDS011;24099;47.102;15.440;2023-04-24T06:28:04;4.68;;;2.72;;
3667;SDS011;24099;47.102;15.440;2023-04-24T06:30:32;3.63;;;2.67;;
3667;SDS011;24099;47.102;15.440;2023-04-24T06:33:00;5.07;;;2.97;;
3667;SDS011;24099;47.102;15.440;2023-04-24T06:35:29;3.70;;;2.58;;
3667;SDS011;24099;47.102;15.440;2023-04-24T06:37:57;3.28;;;2.70;;
3667;SDS011;24099;47.102;15.440;2023-04-24T06:40:25;5.53;;;3.25;;
3667;SDS011;24099;47.102;15.440;2023-04-24T06:42:53;5.88;;;2.83;;
3667;SDS011;24099;47.102;15.440;2023-04-24T06:45:22;4.60;;;2.95;;
3667;SDS011;24099;47.102;15.440;2023-04-24T06:47:49;6.53;;;3.58;;
3667;SDS011;24099;47.102;15.440;2023-04-24T06:50:17;5.22;;;3.53;;
3667;SDS011;24099;47.102;15.440;2023-04-24T06:52:49;4.72;;;3.00;;
3667;SDS011;24099;47.102;15.440;2023-04-24T06:55:19;4.22;;;3.22;;
3667;SDS011;24099;47.102;15.440;2023-04-24T06:57:47;6.53;;;3.40;;
3667;SDS011;24099;47.102;15.440;2023-04-24T07:00:15;4.22;;;2.92;;
3667;SDS011;24099;47.102;15.440;2023-04-24T07:02:43;4.00;;;3.08;;
3667;SDS011;24099;47.102;15.440;2023-04-24T07:05:11;3.35;;;2.65;;
3667;SDS011;24099;47.102;15.440;2023-04-24T07:07:40;6.32;;;3.08;;
3667;SDS011;24099;47.102;15.440;2023-04-24T07:10:11;3.45;;;2.47;;
3667;SDS011;24099;47.102;15.440;2023-04-24T07:12:40;4.88;;;2.80;;
3667;SDS011;24099;47.102;15.440;2023-04-24T07:15:08;3.92;;;3.00;;
3667;SDS011;24099;47.102;15.440;2023-04-24T07:17:36;3.63;;;2.65;;
3667;SDS011;24099;47.102;15.440;2023-04-24T07:20:11;4.53;;;2.55;;
3667;SDS011;24099;47.102;15.440;2023-04-24T07:22:40;4.85;;;3.03;;
3667;SDS011;24099;47.102;15.440;2023-04-24T07:27:56;3.60;;;2.70;;
3667;SDS011;24099;47.102;15.440;2023-04-24T07:30:30;3.78;;;2.30;;
3667;SDS011;24099;47.102;15.440;2023-04-24T07:32:58;6.43;;;3.10;;
3667;SDS011;24099;47.102;15.440;2023-04-24T07:35:26;3.30;;;2.78;;
3667;SDS011;24099;47.102;15.440;2023-04-24T07:37:54;3.78;;;2.42;;
3667;SDS011;24099;47.102;15.440;2023-04-24T07:40:22;7.07;;;3.03;;
3667;SDS011;24099;47.102;15.440;2023-04-24T07:42:52;4.90;;;2.67;;
3667;SDS011;24099;47.102;15.440;2023-04-24T07:45:19;3.83;;;3.05;;
3667;SDS011;24099;47.102;15.440;2023-04-24T07:47:48;4.53;;;3.00;;
3667;SDS011;24099;47.102;15.440;2023-04-24T07:50:16;4.38;;;3.08;;
3667;SDS011;24099;47.102;15.440;2023-04-24T07:52:44;3.90;;;2.88;;
3667;SDS011;24099;47.102;15.440;2023-04-24T07:55:12;3.58;;;2.80;;
3667;SDS011;24099;47.102;15.440;2023-04-24T07:57:41;4.45;;;3.38;;
3667;SDS011;24099;47.102;15.440;2023-04-24T08:00:10;4.43;;;3.05;;
3667;SDS011;24099;47.102;15.440;2023-04-24T08:02:39;3.42;;;2.72;;
3667;SDS011;24099;47.102;15.440;2023-04-24T08:05:07;4.70;;;2.65;;
3667;SDS011;24099;47.102;15.440;2023-04-24T08:07:36;3.72;;;2.47;;
3667;SDS011;24099;47.102;15.440;2023-04-24T08:10:04;4.63;;;2.75;;
3667;SDS011;24099;47.102;15.440;2023-04-24T08:12:33;7.65;;;2.78;;
3667;SDS011;24099;47.102;15.440;2023-04-24T08:15:00;5.57;;;3.20;;
3667;SDS011;24099;47.102;15.440;2023-04-24T08:17:30;6.72;;;3.08;;
3667;SDS011;24099;47.102;15.440;2023-04-24T08:19:57;5.13;;;3.13;;
3667;SDS011;24099;47.102;15.440;2023-04-24T08:22:26;3.38;;;2.63;;
3667;SDS011;24099;47.102;15.440;2023-04-24T08:24:54;3.80;;;2.78;;
3667;SDS011;24099;47.102;15.440;2023-04-24T08:27:23;5.38;;;3.30;;
3667;SDS011;24099;47.102;15.440;2023-04-24T08:29:52;4.57;;;2.92;;
3667;SDS011;24099;47.102;15.440;2023-04-24T08:32:20;4.90;;;2.83;;
3667;SDS011;24099;47.102;15.440;2023-04-24T08:34:50;5.88;;;2.67;;
3667;SDS011;24099;47.102;15.440;2023-04-24T08:37:21;4.45;;;2.80;;
3667;SDS011;24099;47.102;15.440;2023-04-24T08:39:49;3.90;;;2.83;;
3667;SDS011;24099;47.102;15.440;2023-04-24T08:42:18;4.85;;;2.85;;
3667;SDS011;24099;47.102;15.440;2023-04-24T08:44:47;4.07;;;2.50;;
3667;SDS011;24099;47.102;15.440;2023-04-24T08:47:16;11.07;;;2.85;;
3667;SDS011;24099;47.102;15.440;2023-04-24T08:49:47;5.13;;;3.22;;
3667;SDS011;24099;47.102;15.440;2023-04-24T08:52:18;5.38;;;3.13;;
3667;SDS011;24099;47.102;15.440;2023-04-24T08:54:47;5.40;;;3.00;;
3667;SDS011;24099;47.102;15.440;2023-04-24T08:57:14;3.72;;;2.65;;
3667;SDS011;24099;47.102;15.440;2023-04-24T08:59:42;5.25;;;2.67;;
3667;SDS011;24099;47.102;15.440;2023-04-24T09:02:11;6.45;;;2.85;;
3667;SDS011;24099;47.102;15.440;2023-04-24T09:04:40;3.40;;;2.45;;
3667;SDS011;24099;47.102;15.440;2023-04-24T09:07:10;2.90;;;1.98;;
3667;SDS011;24099;47.102;15.440;2023-04-24T09:09:41;5.43;;;2.65;;
3667;SDS011;24099;47.102;15.440;2023-04-24T09:12:09;5.93;;;2.88;;
3667;SDS011;24099;47.102;15.440;2023-04-24T09:14:38;3.90;;;2.40;;
3667;SDS011;24099;47.102;15.440;2023-04-24T09:17:10;4.05;;;2.47;;
3667;SDS011;24099;47.102;15.440;2023-04-24T09:19:38;4.25;;;2.40;;
3667;SDS011;24099;47.102;15.440;2023-04-24T09:22:06;2.15;;;1.95;;
3667;SDS011;24099;47.102;15.440;2023-04-24T09:24:37;4.40;;;2.17;;
3667;SDS011;24099;47.102;15.440;2023-04-24T09:27:06;2.55;;;1.85;;
3667;SDS011;24099;47.102;15.440;2023-04-24T09:29:37;2.08;;;1.70;;
3667;SDS011;24099;47.102;15.440;2023-04-24T09:32:17;2.75;;;1.48;;
3667;SDS011;24099;47.102;15.440;2023-04-24T09:34:47;1.60;;;1.50;;
3667;SDS011;24099;47.102;15.440;2023-04-24T09:37:27;1.35;;;1.25;;
3667;SDS011;24099;47.102;15.440;2023-04-24T09:40:08;2.00;;;1.13;;
3667;SDS011;24099;47.102;15.440;2023-04-24T09:42:40;2.92;;;1.35;;
3667;SDS011;24099;47.102;15.440;2023-04-24T09:45:12;1.75;;;1.40;;
3667;SDS011;24099;47.102;15.440;2023-04-24T09:47:40;3.58;;;1.23;;
3667;SDS011;24099;47.102;15.440;2023-04-24T09:50:09;1.75;;;1.35;;
3667;SDS011;24099;47.102;15.440;2023-04-24T09:52:41;1.63;;;1.33;;
3667;SDS011;24099;47.102;15.440;2023-04-24T09:55:14;0.85;;;0.82;;
3667;SDS011;24099;47.102;15.440;2023-04-24T09:57:48;1.00;;;0.75;;
3667;SDS011;24099;47.102;15.440;2023-04-24T10:00:24;0.60;;;0.60;;
3667;SDS011;24099;47.102;15.440;2023-04-24T10:02:56;1.13;;;0.80;;
3667;SDS011;24099;47.102;15.440;2023-04-24T10:05:26;1.55;;;1.20;;
3667;SDS011;24099;47.102;15.440;2023-04-24T10:07:59;1.25;;;1.10;;
3667;SDS011;24099;47.102;15.440;2023-04-24T10:10:29;1.92;;;1.30;;
3667;SDS011;24099;47.102;15.440;2023-04-24T10:12:59;1.60;;;1.08;;
3667;SDS011;24099;47.102;15.440;2023-04-24T10:15:27;1.60;;;1.40;;
3667;SDS011;24099;47.102;15.440;2023-04-24T10:17:55;2.70;;;1.35;;
3667;SDS011;24099;47.102;15.440;2023-04-24T10:20:26;2.08;;;1.10;;
3667;SDS011;24099;47.102;15.440;2023-04-24T10:22:57;2.15;;;1.33;;
3667;SDS011;24099;47.102;15.440;2023-04-24T10:25:26;0.90;;;0.90;;
3667;SDS011;24099;47.102;15.440;2023-04-24T10:27:56;2.38;;;1.20;;
3667;SDS011;24099;47.102;15.440;2023-04-24T10:30:26;1.42;;;1.10;;
3667;SDS011;24099;47.102;15.440;2023-04-24T10:32:55;1.83;;;1.05;;
3667;SDS011;24099;47.102;15.440;2023-04-24T10:35:25;1.88;;;1.13;;
3667;SDS011;24099;47.102;15.440;2023-04-24T10:37:58;1.48;;;1.10;;
3667;SDS011;24099;47.102;15.440;2023-04-24T10:40:30;1.13;;;0.95;;
3667;SDS011;24099;47.102;15.440;2023-04-24T10:43:01;0.75;;;0.75;;
3667;SDS011;24099;47.102;15.440;2023-04-24T10:45:31;1.02;;;0.77;;
3667;SDS011;24099;47.102;15.440;2023-04-24T10:48:01;0.90;;;0.80;;
3667;SDS011;24099;47.102;15.440;2023-04-24T10:50:41;1.88;;;0.85;;
3667;SDS011;24099;47.102;15.440;2023-04-24T10:53:15;1.13;;;0.85;;
3667;SDS011;24099;47.102;15.440;2023-04-24T10:55:46;1.23;;;0.80;;
3667;SDS011;24099;47.102;15.440;2023-04-24T10:58:22;0.60;;;0.60;;
3667;SDS011;24099;47.102;15.440;2023-04-24T11:00:58;0.80;;;0.80;;
3667;SDS011;24099;47.102;15.440;2023-04-24T11:03:27;1.42;;;0.57;;
3667;SDS011;24099;47.102;15.440;2023-04-24T11:05:56;1.55;;;0.60;;
3667;SDS011;24099;47.102;15.440;2023-04-24T11:08:27;1.98;;;0.57;;
3667;SDS011;24099;47.102;15.440;2023-04-24T11:11:00;0.50;;;0.50;;
3667;SDS011;24099;47.102;15.440;2023-04-24T11:16:43;0.75;;;0.55;;
3667;SDS011;24099;47.102;15.440;2023-04-24T11:19:18;0.70;;;0.50;;
3667;SDS011;24099;47.102;15.440;2023-04-24T11:21:54;1.40;;;0.70;;
3667;SDS011;24099;47.102;15.440;2023-04-24T11:24:33;2.47;;;0.57;;
3667;SDS011;24099;47.102;15.440;2023-04-24T11:27:11;0.57;;;0.57;;
3667;SDS011;24099;47.102;15.440;2023-04-24T11:29:44;0.47;;;0.40;;
3667;SDS011;24099;47.102;15.440;2023-04-24T11:32:24;0.50;;;0.50;;
3667;SDS011;24099;47.102;15.440;2023-04-24T11:34:53;3.15;;;0.55;;
3667;SDS011;24099;47.102;15.440;2023-04-24T11:37:22;0.55;;;0.52;;
3667;SDS011;24099;47.102;15.440;2023-04-24T11:39:52;0.47;;;0.47;;
3667;SDS011;24099;47.102;15.440;2023-04-24T11:42:21;0.30;;;0.30;;
3667;SDS011;24099;47.102;15.440;2023-04-24T11:44:53;0.40;;;0.35;;
3667;SDS011;24099;47.102;15.440;2023-04-24T11:47:28;0.35;;;0.35;;
3667;SDS011;24099;47.102;15.440;2023-04-24T11:52:27;0.30;;;0.30;;
3667;SDS011;24099;47.102;15.440;2023-04-24T11:54:55;0.38;;;0.38;;
3667;SDS011;24099;47.102;15.440;2023-04-24T11:57:24;0.32;;;0.30;;
3667;SDS011;24099;47.102;15.440;2023-04-24T11:59:56;0.50;;;0.50;;
3667;SDS011;24099;47.102;15.440;2023-04-24T12:02:24;0.17;;;0.17;;
3667;SDS011;24099;47.102;15.440;2023-04-24T12:04:53;0.20;;;0.20;;
3667;SDS011;24099;47.102;15.440;2023-04-24T12:07:24;0.10;;;0.10;;
3667;SDS011;24099;47.102;15.440;2023-04-24T12:09:56;0.20;;;0.20;;
3667;SDS011;24099;47.102;15.440;2023-04-24T12:12:26;0.20;;;0.20;;
3667;SDS011;24099;47.102;15.440;2023-04-24T12:14:56;4.75;;;0.20;;
3667;SDS011;24099;47.102;15.440;2023-04-24T12:17:27;0.25;;;0.17;;
3667;SDS011;24099;47.102;15.440;2023-04-24T12:19:58;0.22;;;0.22;;
3667;SDS011;24099;47.102;15.440;2023-04-24T12:22:27;0.35;;;0.20;;
3667;SDS011;24099;47.102;15.440;2023-04-24T12:25:10;0.30;;;0.30;;
3667;SDS011;24099;47.102;15.440;2023-04-24T12:27:40;0.88;;;0.30;;
3667;SDS011;24099;47.102;15.440;2023-04-24T12:30:11;1.40;;;0.50;;
3667;SDS011;24099;47.102;15.440;2023-04-24T12:32:41;0.68;;;0.43;;
3667;SDS011;24099;47.102;15.440;2023-04-24T12:35:10;1.00;;;0.43;;
3667;SDS011;24099;47.102;15.440;2023-04-24T12:37:38;0.30;;;0.30;;
3667;SDS011;24099;47.102;15.440;2023-04-24T12:40:10;2.42;;;0.50;;
3667;SDS011;24099;47.102;15.440;2023-04-24T12:42:42;0.45;;;0.40;;
3667;SDS011;24099;47.102;15.440;2023-04-24T12:47:57;0.20;;;0.20;;
3667;SDS011;24099;47.102;15.440;2023-04-24T12:50:25;0.20;;;0.20;;
3667;SDS011;24099;47.102;15.440;2023-04-24T12:52:54;0.35;;;0.35;;
3667;SDS011;24099;47.102;15.440;2023-04-24T12:55:22;0.20;;;0.20;;
3667;SDS011;24099;47.102;15.440;2023-04-24T12:57:50;0.20;;;0.20;;
3667;SDS011;24099;47.102;15.440;2023-04-24T13:00:19;0.20;;;0.20;;
3667;SDS011;24099;47.102;15.440;2023-04-24T13:02:49;0.10;;;0.10;;
3667;SDS011;24099;47.102;15.440;2023-04-24T13:05:31;0.20;;;0.20;;
3667;SDS011;24099;47.102;15.440;2023-04-24T13:08:02;0.20;;;0.20;;
3667;SDS011;24099;47.102;15.440;2023-04-24T13:10:30;0.20;;;0.20;;
3667;SDS011;24099;47.102;15.440;2023-04-24T13:12:58;0.20;;;0.20;;
3667;SDS011;24099;47.102;15.440;2023-04-24T13:15:28;0.30;;;0.30;;
3667;SDS011;24099;47.102;15.440;2023-04-24T13:17:58;0.20;;;0.20;;
3667;SDS011;24099;47.102;15.440;2023-04-24T13:20:26;0.30;;;0.30;;
3667;SDS011;24099;47.102;15.440;2023-04-24T13:22:54;0.30;;;0.30;;
3667;SDS011;24099;47.102;15.440;2023-04-24T13:25:23;0.40;;;0.20;;
3667;SDS011;24099;47.102;15.440;2023-04-24T13:27:51;0.15;;;0.15;;
3667;SDS011;24099;47.102;15.440;2023-04-24T13:30:19;0.55;;;0.20;;
3667;SDS011;24099;47.102;15.440;2023-04-24T13:32:47;0.22;;;0.22;;
3667;SDS011;24099;47.102;15.440;2023-04-24T13:35:16;0.20;;;0.20;;
3667;SDS011;24099;47.102;15.440;2023-04-24T13:37:44;0.30;;;0.30;;
3667;SDS011;24099;47.102;15.440;2023-04-24T13:40:12;0.20;;;0.20;;
3667;SDS011;24099;47.102;15.440;2023-04-24T13:42:40;2.97;;;0.30;;
3667;SDS011;24099;47.102;15.440;2023-04-24T13:45:08;0.20;;;0.20;;
3667;SDS011;24099;47.102;15.440;2023-04-24T13:47:38;0.30;;;0.30;;
3667;SDS011;24099;47.102;15.440;2023-04-24T13:50:06;0.10;;;0.10;;
3667;SDS011;24099;47.102;15.440;2023-04-24T13:52:40;0.20;;;0.20;;
3667;SDS011;24099;47.102;15.440;2023-04-24T13:55:08;0.10;;;0.10;;
3667;SDS011;24099;47.102;15.440;2023-04-24T13:57:43;0.20;;;0.20;;
3667;SDS011;24099;47.102;15.440;2023-04-24T14:00:12;0.20;;;0.20;;
3667;SDS011;24099;47.102;15.440;2023-04-24T14:02:40;0.20;;;0.20;;
3667;SDS011;24099;47.102;15.440;2023-04-24T14:05:12;1.48;;;0.40;;
3667;SDS011;24099;47.102;15.440;2023-04-24T14:07:41;0.25;;;0.25;;
3667;SDS011;24099;47.102;15.440;2023-04-24T14:10:12;0.30;;;0.20;;
3667;SDS011;24099;47.102;15.440;2023-04-24T14:12:41;0.80;;;0.50;;
3667;SDS011;24099;47.102;15.440;2023-04-24T14:15:09;5.55;;;0.40;;
3667;SDS011;24099;47.102;15.440;2023-04-24T14:17:38;0.30;;;0.30;;
3667;SDS011;24099;47.102;15.440;2023-04-24T14:20:07;0.30;;;0.28;;
3667;SDS011;24099;47.102;15.440;2023-04-24T14:22:35;0.20;;;0.20;;
3667;SDS011;24099;47.102;15.440;2023-04-24T14:25:05;0.63;;;0.30;;
3667;SDS011;24099;47.102;15.440;2023-04-24T14:27:37;0.20;;;0.20;;
3667;SDS011;24099;47.102;15.440;2023-04-24T14:30:06;0.30;;;0.30;;
3667;SDS011;24099;47.102;15.440;2023-04-24T14:32:38;0.30;;;0.30;;
3667;SDS011;24099;47.102;15.440;2023-04-24T14:37:56;0.32;;;0.30;;
3667;SDS011;24099;47.102;15.440;2023-04-24T14:40:26;1.10;;;0.40;;
3667;SDS011;24099;47.102;15.440;2023-04-24T14:42:54;1.80;;;0.40;;
3667;SDS011;24099;47.102;15.440;2023-04-24T14:45:29;0.20;;;0.20;;
3667;SDS011;24099;47.102;15.440;2023-04-24T14:47:58;0.30;;;0.30;;
3667;SDS011;24099;47.102;15.440;2023-04-24T14:50:26;0.40;;;0.22;;
3667;SDS011;24099;47.102;15.440;2023-04-24T14:52:54;0.28;;;0.28;;
3667;SDS011;24099;47.102;15.440;2023-04-24T14:55:23;0.35;;;0.35;;
3667;SDS011;24099;47.102;15.440;2023-04-24T14:57:53;0.52;;;0.40;;
3667;SDS011;24099;47.102;15.440;2023-04-24T15:00:22;1.25;;;0.40;;
3667;SDS011;24099;47.102;15.440;2023-04-24T15:02:50;0.50;;;0.43;;
3667;SDS011;24099;47.102;15.440;2023-04-24T15:05:18;0.20;;;0.20;;
3667;SDS011;24099;47.102;15.440;2023-04-24T15:07:47;0.30;;;0.30;;
3667;SDS011;24099;47.102;15.440;2023-04-24T15:10:15;0.35;;;0.30;;
3667;SDS011;24099;47.102;15.440;2023-04-24T15:12:43;0.40;;;0.35;;
3667;SDS011;24099;47.102;15.440;2023-04-24T15:15:20;0.32;;;0.32;;
3667;SDS011;24099;47.102;15.440;2023-04-24T15:17:57;0.47;;;0.30;;
3667;SDS011;24099;47.102;15.440;2023-04-24T15:20:27;0.50;;;0.40;;